Time;durP1;ratioP1;P1;durP2;ratioP2;P2;SDS_P1;SDS_P2;PMS_P1;PMS_P2;Temp;Humidity;BMP_temperature;BMP_pressure;BME280_temperature;BME280_humidity;BME280_pressure;Samples;Min_cycle;Max_cycle;Signal;HPM_P1;HPM_P2
2022/10/02 00:01:48;;;;;;;15.23;3.63;;;15.20;98.90;;;;;;5115963;28;20431;-69
2022/10/02 00:04:21;;;;;;;16.57;3.73;;;15.20;99.00;;;;;;5115438;28;20456;-69
2022/10/02 00:06:50;;;;;;;22.03;4.80;;;15.20;99.20;;;;;;5115249;28;20472;-69
2022/10/02 00:09:25;;;;;;;20.37;3.77;;;15.30;99.10;;;;;;5115192;28;20475;-69
2022/10/02 00:11:56;;;;;;;16.80;3.80;;;15.30;99.20;;;;;;5115161;28;20429;-69
2022/10/02 00:14:25;;;;;;;15.47;3.43;;;15.30;99.20;;;;;;5115136;28;20435;-69
2022/10/02 00:16:55;;;;;;;13.73;3.90;;;15.30;99.30;;;;;;5114951;28;20469;-68
2022/10/02 00:19:22;;;;;;;19.77;3.70;;;15.30;99.40;;;;;;5114984;28;20518;-68
2022/10/02 00:22:01;;;;;;;15.43;3.80;;;15.30;99.50;;;;;;5115040;28;20446;-69
2022/10/02 00:24:36;;;;;;;17.77;4.40;;;15.40;99.70;;;;;;5114890;28;20439;-69
2022/10/02 00:27:27;;;;;;;17.03;4.37;;;15.40;99.60;;;;;;5114576;28;20476;-68
2022/10/02 00:29:57;;;;;;;23.03;5.00;;;15.40;99.50;;;;;;5114323;28;20474;-69
2022/10/02 00:32:31;;;;;;;17.70;4.77;;;15.50;99.60;;;;;;5114498;28;20909;-69
2022/10/02 00:35:28;;;;;;;17.10;3.80;;;15.50;99.60;;;;;;5114661;28;20431;-68
2022/10/02 00:38:01;;;;;;;14.03;3.77;;;15.50;99.60;;;;;;5114790;28;20792;-68
2022/10/02 00:40:42;;;;;;;13.07;3.97;;;15.50;99.70;;;;;;5114407;28;20461;-65
2022/10/02 00:43:24;;;;;;;16.83;3.90;;;15.50;99.80;;;;;;5114709;28;20450;-65
2022/10/02 00:46:17;;;;;;;14.67;3.40;;;15.50;99.90;;;;;;5114919;28;20463;-65
2022/10/02 00:49:09;;;;;;;22.17;4.30;;;15.50;99.90;;;;;;5114536;28;20439;-65
2022/10/02 00:51:51;;;;;;;16.73;4.60;;;15.50;99.90;;;;;;5114571;28;20449;-65
2022/10/02 00:54:50;;;;;;;18.50;3.90;;;15.50;99.90;;;;;;5114105;28;20834;-65
2022/10/02 00:57:25;;;;;;;22.40;5.13;;;15.50;99.90;;;;;;5114471;27;20430;-65
2022/10/02 01:00:06;;;;;;;14.10;3.60;;;15.50;99.90;;;;;;5114344;28;20429;-65
2022/10/02 01:02:57;;;;;;;15.10;3.77;;;15.50;99.90;;;;;;5114054;28;20922;-65
2022/10/02 01:05:26;;;;;;;22.97;3.40;;;15.50;99.90;;;;;;5113953;28;20819;-65
2022/10/02 01:07:55;;;;;;;18.20;4.07;;;15.60;99.90;;;;;;5114140;28;20541;-65
2022/10/02 01:10:24;;;;;;;18.30;4.30;;;15.60;99.90;;;;;;5114067;28;20483;-65
2022/10/02 01:12:51;;;;;;;18.33;4.00;;;15.60;99.90;;;;;;5113807;28;21031;-65
2022/10/02 01:15:21;;;;;;;23.70;4.30;;;15.60;99.90;;;;;;5114123;28;20469;-65
2022/10/02 01:17:50;;;;;;;27.07;4.90;;;15.50;99.90;;;;;;5114084;28;20446;-65
2022/10/02 01:20:20;;;;;;;16.60;4.50;;;15.60;99.90;;;;;;5114027;28;20442;-65
2022/10/02 01:22:54;;;;;;;21.30;5.63;;;15.60;99.90;;;;;;5114047;28;20443;-65
2022/10/02 01:25:22;;;;;;;22.23;4.93;;;15.50;99.90;;;;;;5113605;28;21010;-65
2022/10/02 01:27:52;;;;;;;15.33;4.40;;;15.50;99.90;;;;;;5114028;28;20451;-66
2022/10/02 01:30:20;;;;;;;20.60;4.10;;;15.60;99.90;;;;;;5113732;28;20483;-66
2022/10/02 01:32:50;;;;;;;22.67;4.50;;;15.60;99.90;;;;;;5114532;28;20778;-67
2022/10/02 01:35:19;;;;;;;19.60;4.87;;;15.60;99.90;;;;;;5113812;28;21006;-66
2022/10/02 01:37:48;;;;;;;20.93;4.50;;;15.60;99.90;;;;;;5113461;28;20964;-67
2022/10/02 01:40:28;;;;;;;16.63;4.30;;;15.60;99.90;;;;;;5113653;28;20469;-67
2022/10/02 01:42:59;;;;;;;22.47;5.20;;;15.60;99.90;;;;;;5117439;28;20792;-67
2022/10/02 01:45:39;;;;;;;22.77;4.13;;;15.60;99.90;;;;;;5118077;28;20470;-67
2022/10/02 01:48:12;;;;;;;18.07;4.10;;;15.60;99.90;;;;;;5118411;28;20932;-67
2022/10/02 01:50:48;;;;;;;24.67;4.87;;;15.60;99.90;;;;;;5118299;28;20470;-67
2022/10/02 01:53:23;;;;;;;34.17;5.57;;;15.60;99.90;;;;;;5118007;28;20426;-67
2022/10/02 01:56:04;;;;;;;25.60;6.17;;;15.60;99.90;;;;;;5117827;28;20485;-67
2022/10/02 01:58:39;;;;;;;24.73;5.00;;;15.60;99.90;;;;;;5117511;28;20431;-67
2022/10/02 02:01:14;;;;;;;21.40;5.00;;;15.60;99.90;;;;;;5117716;28;20925;-67
2022/10/02 02:03:51;;;;;;;20.03;4.37;;;15.70;99.90;;;;;;5117781;28;20438;-67
2022/10/02 02:06:28;;;;;;;20.90;4.50;;;15.70;99.90;;;;;;5117492;28;21018;-67
2022/10/02 02:09:05;;;;;;;21.77;4.83;;;15.60;99.90;;;;;;5117992;28;20446;-67
2022/10/02 02:11:37;;;;;;;24.40;4.93;;;15.70;99.90;;;;;;5117737;27;20466;-67
2022/10/02 02:14:07;;;;;;;32.90;5.90;;;15.70;99.90;;;;;;5117862;28;20431;-67
2022/10/02 02:16:40;;;;;;;29.57;4.80;;;15.70;99.90;;;;;;5118066;28;20473;-67
2022/10/02 02:19:14;;;;;;;35.93;5.57;;;15.70;99.90;;;;;;5118469;27;20438;-67
2022/10/02 02:21:45;;;;;;;16.80;4.97;;;15.70;99.90;;;;;;5118773;28;20445;-67
2022/10/02 02:24:20;;;;;;;26.27;5.03;;;15.60;99.90;;;;;;5119087;28;20434;-67
2022/10/02 02:26:50;;;;;;;22.47;5.57;;;15.60;99.90;;;;;;5119860;28;20476;-67
2022/10/02 02:29:20;;;;;;;17.97;3.83;;;15.70;99.90;;;;;;5120157;28;20439;-68
2022/10/02 02:31:50;;;;;;;20.10;5.47;;;15.70;99.90;;;;;;5120907;28;20438;-67
2022/10/02 02:34:20;;;;;;;26.57;5.07;;;15.70;99.90;;;;;;5117400;28;20454;-66
2022/10/02 02:36:52;;;;;;;30.53;5.70;;;15.80;99.90;;;;;;5117023;28;20470;-67
2022/10/02 02:39:23;;;;;;;19.57;4.70;;;15.80;99.90;;;;;;5116932;27;20464;-67
2022/10/02 02:41:55;;;;;;;21.40;5.30;;;15.70;99.90;;;;;;5117136;28;20449;-67
2022/10/02 02:44:26;;;;;;;22.50;4.10;;;15.70;99.90;;;;;;5116971;27;20430;-67
2022/10/02 02:47:03;;;;;;;28.40;5.73;;;15.80;99.90;;;;;;5116848;28;20530;-67
2022/10/02 02:49:37;;;;;;;26.70;4.77;;;15.80;99.90;;;;;;5116388;28;20939;-67
2022/10/02 02:52:07;;;;;;;27.30;4.80;;;15.80;99.90;;;;;;5115919;28;20904;-67
2022/10/02 02:54:38;;;;;;;20.40;4.23;;;15.80;99.90;;;;;;5116657;28;20439;-67
2022/10/02 02:57:09;;;;;;;14.27;3.60;;;15.80;99.90;;;;;;5116616;27;20482;-67
2022/10/02 02:59:37;;;;;;;26.33;5.07;;;15.80;99.90;;;;;;5116566;28;20431;-67
2022/10/02 03:02:04;;;;;;;20.60;4.10;;;15.70;99.90;;;;;;5116585;28;20446;-67
2022/10/02 03:04:31;;;;;;;21.23;4.37;;;15.80;99.90;;;;;;5116590;27;20457;-67
2022/10/02 03:07:02;;;;;;;20.70;4.00;;;15.80;99.90;;;;;;5116448;28;20478;-67
2022/10/02 03:09:32;;;;;;;20.93;4.63;;;15.80;99.90;;;;;;5116335;28;20510;-67
2022/10/02 03:12:10;;;;;;;22.00;5.37;;;15.80;99.90;;;;;;5116376;28;20817;-67
2022/10/02 03:14:50;;;;;;;30.40;5.47;;;15.80;99.90;;;;;;5116379;28;20453;-67
2022/10/02 03:17:29;;;;;;;31.33;4.83;;;15.80;99.90;;;;;;5116465;28;20426;-66
2022/10/02 03:20:05;;;;;;;23.67;4.60;;;15.80;99.90;;;;;;5116207;28;20429;-66
2022/10/02 03:22:41;;;;;;;21.03;4.40;;;15.80;99.90;;;;;;5116231;28;20430;-66
2022/10/02 03:25:12;;;;;;;26.20;5.10;;;15.90;99.90;;;;;;5116258;28;20445;-67
2022/10/02 03:27:46;;;;;;;22.77;4.20;;;15.80;99.90;;;;;;5115920;28;20818;-67
2022/10/02 03:30:14;;;;;;;20.87;4.27;;;15.80;99.90;;;;;;5116013;28;20495;-67
2022/10/02 03:32:45;;;;;;;25.83;4.70;;;15.80;99.90;;;;;;5115980;28;20454;-67
2022/10/02 03:35:13;;;;;;;16.07;3.60;;;15.80;99.90;;;;;;5116421;28;20463;-67
2022/10/02 03:37:42;;;;;;;19.63;4.13;;;15.80;99.90;;;;;;5115833;28;20800;-66
2022/10/02 03:40:10;;;;;;;14.83;3.83;;;15.80;99.90;;;;;;5115563;28;20462;-67
2022/10/02 03:42:37;;;;;;;16.17;3.77;;;15.80;99.90;;;;;;5115453;28;20974;-67
2022/10/02 03:45:06;;;;;;;12.10;3.60;;;15.80;99.90;;;;;;5115691;28;20462;-67
2022/10/02 03:47:33;;;;;;;17.93;4.07;;;15.70;99.90;;;;;;5115647;28;20453;-68
2022/10/02 03:50:00;;;;;;;19.77;4.10;;;15.70;99.90;;;;;;5115588;28;20478;-67
2022/10/02 03:52:31;;;;;;;9.97;3.50;;;15.70;99.90;;;;;;5115242;28;20442;-67
2022/10/02 03:55:03;;;;;;;14.63;3.17;;;15.70;99.90;;;;;;5115488;28;20446;-67
2022/10/02 03:57:33;;;;;;;16.00;3.50;;;15.70;99.90;;;;;;5115685;28;20437;-67
2022/10/02 04:00:03;;;;;;;19.43;4.53;;;15.70;99.90;;;;;;5115560;28;20445;-67
2022/10/02 04:02:37;;;;;;;14.87;4.63;;;15.80;99.90;;;;;;5115405;28;20523;-67
2022/10/02 04:05:14;;;;;;;14.77;3.43;;;15.70;99.90;;;;;;5114440;28;20498;-66
2022/10/02 04:07:43;;;;;;;20.13;4.67;;;15.70;99.90;;;;;;5115277;28;20430;-67
2022/10/02 04:10:23;;;;;;;15.50;4.40;;;15.60;99.90;;;;;;5115242;28;20486;-67
2022/10/02 04:12:53;;;;;;;9.90;2.80;;;15.60;99.90;;;;;;5114951;27;20430;-67
2022/10/02 04:15:27;;;;;;;15.33;3.40;;;15.60;99.90;;;;;;5115099;28;20470;-67
2022/10/02 04:18:01;;;;;;;15.53;3.90;;;15.60;99.90;;;;;;5115127;28;20430;-67
2022/10/02 04:20:36;;;;;;;14.80;3.43;;;15.60;99.90;;;;;;5114887;28;20830;-67
2022/10/02 04:23:11;;;;;;;21.33;3.80;;;15.60;99.90;;;;;;5115564;28;20459;-67
2022/10/02 04:25:42;;;;;;;13.50;3.77;;;15.50;99.90;;;;;;5115004;28;21017;-67
2022/10/02 04:28:14;;;;;;;19.40;4.13;;;15.60;99.90;;;;;;5114695;28;20909;-67
2022/10/02 04:30:40;;;;;;;17.33;3.53;;;15.50;99.90;;;;;;5114885;28;20474;-67
2022/10/02 04:33:12;;;;;;;13.00;3.90;;;15.50;99.90;;;;;;5114831;28;20474;-67
2022/10/02 04:35:50;;;;;;;18.67;4.40;;;15.50;99.90;;;;;;5114730;28;20846;-67
2022/10/02 04:38:38;;;;;;;16.90;3.40;;;15.40;99.90;;;;;;5114677;28;20437;-67
2022/10/02 04:41:18;;;;;;;13.23;4.83;;;15.40;99.90;;;;;;5114784;28;20440;-67
2022/10/02 04:44:02;;;;;;;22.67;4.57;;;15.40;99.90;;;;;;5114370;28;20905;-67
2022/10/02 04:46:52;;;;;;;18.77;4.67;;;15.40;99.90;;;;;;5114278;28;20841;-67
2022/10/02 04:49:46;;;;;;;15.97;4.13;;;15.40;99.90;;;;;;5114672;28;20438;-67
2022/10/02 04:52:38;;;;;;;22.87;4.07;;;15.40;99.90;;;;;;5114385;28;20548;-67
2022/10/02 04:55:21;;;;;;;12.57;3.97;;;15.40;99.90;;;;;;5114426;28;20967;-66
2022/10/02 04:57:59;;;;;;;19.47;4.60;;;15.40;99.90;;;;;;5114472;28;20436;-65
2022/10/02 05:00:35;;;;;;;9.83;3.50;;;15.40;99.90;;;;;;5114717;28;20428;-66
2022/10/02 05:03:23;;;;;;;24.57;4.17;;;15.40;99.90;;;;;;5114519;28;20916;-66
2022/10/02 05:06:11;;;;;;;14.20;3.80;;;15.40;99.90;;;;;;5114843;28;20513;-66
2022/10/02 05:08:47;;;;;;;18.80;4.50;;;15.40;99.90;;;;;;5114852;28;20446;-66
2022/10/02 05:11:37;;;;;;;15.27;3.73;;;15.40;99.90;;;;;;5115041;28;20466;-65
2022/10/02 05:14:27;;;;;;;11.67;3.43;;;15.40;99.90;;;;;;5115813;28;20456;-65
2022/10/02 05:17:06;;;;;;;10.27;3.37;;;15.40;99.90;;;;;;5116385;28;21000;-67
2022/10/02 05:19:48;;;;;;;16.57;3.73;;;15.40;99.90;;;;;;5116306;28;20526;-67
2022/10/02 05:22:47;;;;;;;15.13;4.37;;;15.40;99.90;;;;;;5116321;28;20431;-67
2022/10/02 05:25:27;;;;;;;13.83;3.47;;;15.40;99.90;;;;;;5116281;28;21000;-68
2022/10/02 05:28:10;;;;;;;16.77;3.77;;;15.40;99.90;;;;;;5114473;28;20435;-67
2022/10/02 05:30:46;;;;;;;14.40;3.50;;;15.40;99.90;;;;;;5114097;28;20845;-67
2022/10/02 05:33:31;;;;;;;11.73;3.63;;;15.40;99.90;;;;;;5114218;28;20434;-67
2022/10/02 05:36:22;;;;;;;16.57;3.87;;;15.30;99.90;;;;;;5114140;28;20538;-67
2022/10/02 05:39:07;;;;;;;14.53;3.30;;;15.30;99.90;;;;;;5111882;28;20484;-67
2022/10/02 05:41:48;;;;;;;12.67;4.60;;;15.30;99.90;;;;;;5113635;28;20970;-67
2022/10/02 05:44:18;;;;;;;11.37;3.13;;;15.30;99.90;;;;;;5113575;28;20909;-67
2022/10/02 05:46:51;;;;;;;10.30;2.77;;;15.30;99.90;;;;;;5114151;28;20493;-66
2022/10/02 05:49:22;;;;;;;11.73;3.87;;;15.20;99.90;;;;;;5113947;28;20793;-66
2022/10/02 05:51:58;;;;;;;12.13;3.23;;;15.30;99.90;;;;;;5113789;28;20466;-65
2022/10/02 05:54:41;;;;;;;13.50;4.53;;;15.30;99.90;;;;;;5113750;28;20453;-65
2022/10/02 05:57:15;;;;;;;11.70;3.10;;;15.30;99.90;;;;;;5113659;28;20474;-66
2022/10/02 05:59:50;;;;;;;7.70;2.83;;;15.30;99.90;;;;;;5113398;28;20804;-65
2022/10/02 06:02:26;;;;;;;9.53;3.37;;;15.30;99.90;;;;;;5113635;28;20431;-66
2022/10/02 06:05:00;;;;;;;7.83;3.00;;;15.30;99.90;;;;;;5113572;28;20442;-67
2022/10/02 06:07:28;;;;;;;9.90;2.80;;;15.30;99.90;;;;;;5113549;28;20435;-67
2022/10/02 06:10:01;;;;;;;8.43;2.67;;;15.30;99.90;;;;;;5113235;28;20454;-67
2022/10/02 06:12:33;;;;;;;11.20;3.40;;;15.30;99.90;;;;;;5113763;28;20502;-66
2022/10/02 06:15:03;;;;;;;4.67;2.57;;;15.30;99.90;;;;;;5113489;28;20434;-66
2022/10/02 06:17:36;;;;;;;10.87;2.60;;;15.30;99.90;;;;;;5113233;28;20920;-66
2022/10/02 06:20:12;;;;;;;7.60;2.60;;;15.30;99.90;;;;;;5113533;28;20437;-67
2022/10/02 06:22:44;;;;;;;7.77;2.70;;;15.30;99.90;;;;;;5113622;28;20766;-67
2022/10/02 06:25:19;;;;;;;10.03;2.63;;;15.40;99.90;;;;;;5113479;28;20469;-68
2022/10/02 06:27:51;;;;;;;17.13;3.77;;;15.40;99.90;;;;;;5115177;28;20440;-67
2022/10/02 06:30:20;;;;;;;7.47;2.50;;;15.50;99.90;;;;;;5117278;28;20796;-68
2022/10/02 06:32:53;;;;;;;9.50;3.10;;;15.50;99.90;;;;;;5116753;28;20844;-68
2022/10/02 06:35:34;;;;;;;5.90;2.10;;;15.50;99.90;;;;;;5117145;28;20478;-68
2022/10/02 06:38:13;;;;;;;11.77;3.83;;;15.60;99.90;;;;;;5117232;28;20807;-67
2022/10/02 06:40:50;;;;;;;6.83;2.80;;;15.60;99.90;;;;;;5116763;28;20955;-68
2022/10/02 06:43:41;;;;;;;5.80;2.70;;;15.60;99.90;;;;;;5116543;28;20932;-67
2022/10/02 06:46:21;;;;;;;9.50;3.20;;;15.60;99.90;;;;;;5116954;28;20489;-65
2022/10/02 06:48:54;;;;;;;11.90;3.90;;;15.60;99.90;;;;;;5116812;28;20443;-65
2022/10/02 06:51:31;;;;;;;12.47;3.40;;;15.70;99.90;;;;;;5116796;28;20474;-66
2022/10/02 06:54:26;;;;;;;10.10;3.07;;;15.70;99.90;;;;;;5116959;28;20445;-68
2022/10/02 06:57:10;;;;;;;11.30;3.67;;;15.70;99.90;;;;;;5090480;28;20996;-70
2022/10/02 06:59:55;;;;;;;12.70;3.70;;;15.80;99.90;;;;;;5116362;28;20431;-70
2022/10/02 07:02:37;;;;;;;6.27;2.97;;;15.80;99.90;;;;;;5116957;28;20438;-67
2022/10/02 07:05:27;;;;;;;14.90;3.73;;;15.90;99.90;;;;;;5116926;28;20771;-64
2022/10/02 07:08:02;;;;;;;10.80;3.30;;;15.90;99.90;;;;;;5116846;28;20446;-65
2022/10/02 07:10:35;;;;;;;10.67;2.90;;;16.00;99.90;;;;;;5116653;28;20431;-65
2022/10/02 07:13:26;;;;;;;13.37;3.07;;;16.00;99.90;;;;;;5116390;28;20540;-65
2022/10/02 07:16:19;;;;;;;12.03;2.70;;;16.00;99.90;;;;;;5116041;28;20470;-65
2022/10/02 07:19:06;;;;;;;12.47;3.03;;;16.10;99.90;;;;;;5116350;28;20432;-66
2022/10/02 07:21:43;;;;;;;9.77;2.97;;;16.10;99.90;;;;;;5116305;28;20783;-70
2022/10/02 07:24:26;;;;;;;8.53;3.00;;;16.20;99.90;;;;;;5116228;28;20415;-66
2022/10/02 07:26:59;;;;;;;5.67;2.40;;;16.20;99.90;;;;;;5116063;28;20817;-67
2022/10/02 07:29:37;;;;;;;13.87;4.33;;;16.30;99.90;;;;;;5115786;28;20944;-66
2022/10/02 07:32:35;;;;;;;10.50;2.77;;;16.30;99.90;;;;;;5116011;28;20478;-66
2022/10/02 07:35:18;;;;;;;9.87;2.90;;;16.20;99.90;;;;;;5109815;28;20456;-67
2022/10/02 07:37:55;;;;;;;12.60;3.10;;;16.10;99.90;;;;;;5115951;28;20790;-66
2022/10/02 07:40:33;;;;;;;5.33;2.90;;;16.10;99.90;;;;;;5115613;28;20465;-66
2022/10/02 07:43:16;;;;;;;9.43;2.77;;;16.10;99.90;;;;;;5115976;28;20432;-66
2022/10/02 07:45:50;;;;;;;7.00;3.27;;;16.10;99.90;;;;;;5115905;28;20466;-67
2022/10/02 07:48:28;;;;;;;8.00;3.17;;;16.20;99.90;;;;;;5115542;28;20896;-68
2022/10/02 07:51:45;;;;;;;7.27;2.70;;;16.10;99.90;;;;;;5115906;28;20438;-69
2022/10/02 07:54:02;;;;;;;7.90;2.43;;;16.10;99.90;;;;;;5115187;28;20496;-68
2022/10/02 07:56:30;;;;;;;9.93;3.10;;;16.10;99.90;;;;;;5115752;28;20477;-68
2022/10/02 07:59:02;;;;;;;9.43;3.10;;;16.00;99.90;;;;;;5115689;28;20448;-68
2022/10/02 08:01:34;;;;;;;13.87;3.37;;;16.10;99.90;;;;;;5115701;28;20493;-68
2022/10/02 08:04:04;;;;;;;9.13;2.73;;;16.00;99.90;;;;;;5115863;28;20430;-68
2022/10/02 08:06:32;;;;;;;5.30;2.83;;;16.10;99.90;;;;;;5115428;28;20463;-68
2022/10/02 08:09:03;;;;;;;10.80;3.03;;;16.10;99.90;;;;;;5116592;28;20458;-68
2022/10/02 08:11:35;;;;;;;13.63;3.20;;;16.10;99.90;;;;;;5117197;28;20466;-68
2022/10/02 08:14:08;;;;;;;9.33;2.87;;;16.20;99.90;;;;;;5117537;28;20443;-68
2022/10/02 08:16:41;;;;;;;7.00;2.57;;;16.20;99.90;;;;;;5119110;28;20486;-68
2022/10/02 08:19:14;;;;;;;8.53;3.50;;;16.30;99.90;;;;;;5119314;28;20446;-68
2022/10/02 08:21:45;;;;;;;7.17;2.20;;;16.30;99.90;;;;;;5117182;28;20427;-69
2022/10/02 08:24:15;;;;;;;9.20;4.53;;;16.30;99.90;;;;;;5115628;28;20522;-68
2022/10/02 08:26:47;;;;;;;9.70;3.27;;;16.40;99.90;;;;;;5115071;28;20474;-68
2022/10/02 08:29:19;;;;;;;12.93;2.63;;;16.40;99.90;;;;;;5114967;28;20480;-69
2022/10/02 08:31:50;;;;;;;8.57;3.30;;;16.40;99.90;;;;;;5114866;28;20471;-68
2022/10/02 08:34:19;;;;;;;8.43;2.40;;;16.40;99.90;;;;;;5114829;28;20427;-68
2022/10/02 08:37:15;;;;;;;10.70;2.80;;;16.40;99.90;;;;;;5114641;28;20467;-68
2022/10/02 08:40:00;;;;;;;7.43;3.00;;;16.50;99.70;;;;;;5114406;28;20469;-69
2022/10/02 08:43:05;;;;;;;12.00;2.70;;;16.40;99.70;;;;;;5114707;28;20496;-69
2022/10/02 08:46:03;;;;;;;9.40;2.10;;;16.50;99.70;;;;;;5092386;28;20497;-69
2022/10/02 08:49:10;;;;;;;8.77;3.27;;;16.50;99.50;;;;;;5114641;28;20441;-69
2022/10/02 08:52:02;;;;;;;7.67;2.30;;;16.60;99.60;;;;;;5095566;28;20479;-69
2022/10/02 08:55:00;;;;;;;7.00;1.83;;;16.60;99.20;;;;;;5114180;28;20928;-69
2022/10/02 08:58:13;;;;;;;4.37;1.50;;;16.70;99.10;;;;;;5101790;28;20455;-69
2022/10/02 09:00:55;;;;;;;4.37;1.87;;;16.60;98.70;;;;;;5056959;28;20450;-69
2022/10/02 09:03:59;;;;;;;9.10;2.20;;;16.60;98.50;;;;;;5114806;27;20427;-69
2022/10/02 09:07:01;;;;;;;8.07;3.00;;;16.50;98.60;;;;;;5114295;28;20470;-69
2022/10/02 09:10:25;;;;;;;7.57;2.30;;;16.40;98.80;;;;;;5114240;28;20564;-69
2022/10/02 09:13:33;;;;;;;3.83;1.83;;;16.40;99.40;;;;;;5090466;27;20485;-69
2022/10/02 09:16:09;;;;;;;5.70;2.17;;;16.30;99.40;;;;;;5113816;28;20470;-70
2022/10/02 09:18:55;;;;;;;6.53;2.40;;;16.30;99.90;;;;;;5114165;28;20431;-69
2022/10/02 09:21:51;;;;;;;4.20;1.77;;;16.40;99.90;;;;;;5114120;28;20427;-69
2022/10/02 09:24:58;;;;;;;7.70;2.10;;;16.50;99.90;;;;;;5113784;28;20817;-69
2022/10/02 09:27:56;;;;;;;5.00;1.77;;;16.60;99.50;;;;;;5114134;28;20438;-69
2022/10/02 09:30:56;;;;;;;6.67;1.70;;;16.80;98.80;;;;;;5113636;28;20876;-68
2022/10/02 09:34:09;;;;;;;5.13;2.03;;;16.90;98.30;;;;;;5114312;28;20471;-68
2022/10/02 09:37:02;;;;;;;4.70;1.70;;;17.00;97.60;;;;;;5051812;28;20468;-69
2022/10/02 09:40:09;;;;;;;9.37;2.50;;;17.00;97.10;;;;;;5113731;28;20455;-69
2022/10/02 09:43:26;;;;;;;7.03;1.93;;;17.10;97.00;;;;;;5078097;28;20466;-69
2022/10/02 09:46:38;;;;;;;7.83;2.30;;;17.10;96.90;;;;;;5113728;28;20478;-69
2022/10/02 09:49:56;;;;;;;6.47;1.73;;;17.20;96.50;;;;;;5077223;28;20447;-69
2022/10/02 09:53:02;;;;;;;2.87;1.27;;;17.30;96.70;;;;;;5113754;28;20500;-70
2022/10/02 09:56:01;;;;;;;7.00;1.67;;;17.50;96.30;;;;;;5113692;28;20455;-69
2022/10/02 09:59:06;;;;;;;5.43;1.83;;;17.70;96.40;;;;;;5113690;28;20458;-69
2022/10/02 10:01:51;;;;;;;8.47;2.40;;;17.80;95.60;;;;;;5113695;28;20436;-69
2022/10/02 10:04:48;;;;;;;5.10;1.53;;;17.80;95.20;;;;;;5117473;28;20821;-69
2022/10/02 10:07:50;;;;;;;6.63;2.03;;;17.60;95.20;;;;;;5117294;28;20832;-69
2022/10/02 10:10:46;;;;;;;4.27;1.57;;;17.60;95.40;;;;;;5094111;28;20438;-69
2022/10/02 10:13:45;;;;;;;6.90;1.93;;;17.60;95.60;;;;;;5117523;28;20462;-69
2022/10/02 10:16:49;;;;;;;6.73;2.33;;;17.60;95.50;;;;;;5117497;28;20822;-69
2022/10/02 10:19:49;;;;;;;3.60;2.00;;;17.50;95.70;;;;;;5117590;28;20520;-69
2022/10/02 10:22:56;;;;;;;4.60;2.00;;;17.40;95.60;;;;;;5117425;28;20446;-69
2022/10/02 10:25:59;;;;;;;7.20;2.00;;;17.50;96.20;;;;;;5112349;27;20478;-69
2022/10/02 10:28:57;;;;;;;7.90;1.80;;;17.90;96.30;;;;;;5117291;28;20427;-69
2022/10/02 10:32:05;;;;;;;4.63;2.00;;;18.50;95.10;;;;;;5117608;28;20427;-69
2022/10/02 10:34:56;;;;;;;6.37;2.00;;;19.00;93.10;;;;;;5117439;27;20431;-69
2022/10/02 10:40:37;;;;;;;4.30;1.73;;;19.40;92.10;;;;;;5117104;28;20476;-70
2022/10/02 10:43:42;;;;;;;4.40;2.20;;;19.90;91.70;;;;;;5117275;28;20484;-69
2022/10/02 10:46:29;;;;;;;5.33;2.60;;;20.20;89.00;;;;;;5116879;28;20977;-69
2022/10/02 10:49:13;;;;;;;4.60;1.70;;;20.20;87.80;;;;;;5117320;28;20443;-69
2022/10/02 10:51:48;;;;;;;7.63;2.57;;;20.70;84.90;;;;;;5117279;28;20440;-69
2022/10/02 10:54:47;;;;;;;10.20;2.17;;;21.00;81.50;;;;;;5117839;28;20437;-69
2022/10/02 10:57:28;;;;;;;6.13;2.03;;;21.30;81.10;;;;;;5116953;28;20532;-69
2022/10/02 11:00:17;;;;;;;4.87;2.20;;;21.20;80.10;;;;;;5117671;28;20514;-69
2022/10/02 11:03:06;;;;;;;5.93;2.23;;;21.30;80.40;;;;;;5118058;28;20430;-69
2022/10/02 11:06:17;;;;;;;5.23;2.10;;;21.40;78.60;;;;;;5118552;28;20471;-69
2022/10/02 11:09:17;;;;;;;8.00;2.17;;;21.60;79.10;;;;;;5097848;28;20812;-70
2022/10/02 11:11:57;;;;;;;8.17;2.17;;;21.50;76.60;;;;;;5118847;28;20971;-69
2022/10/02 11:14:35;;;;;;;4.90;2.10;;;21.30;77.40;;;;;;5116142;28;20463;-69
2022/10/02 11:17:26;;;;;;;9.00;2.20;;;21.20;78.70;;;;;;5116254;28;20463;-69
2022/10/02 11:20:23;;;;;;;6.97;2.20;;;21.00;77.20;;;;;;5115888;28;20801;-69
2022/10/02 11:23:24;;;;;;;8.53;2.20;;;20.90;78.10;;;;;;5115810;28;21028;-69
2022/10/02 11:26:21;;;;;;;5.80;2.03;;;21.30;78.80;;;;;;5113087;28;20819;-69
2022/10/02 11:29:04;;;;;;;4.33;2.40;;;21.90;75.60;;;;;;5115731;28;20952;-69
2022/10/02 11:31:46;;;;;;;8.97;2.13;;;22.30;71.90;;;;;;5115996;27;20431;-69
2022/10/02 11:34:32;;;;;;;6.40;1.80;;;22.50;73.20;;;;;;5115585;28;20587;-69
2022/10/02 11:37:23;;;;;;;6.93;2.20;;;22.40;71.00;;;;;;5116020;28;20470;-70
2022/10/02 11:40:33;;;;;;;4.53;2.50;;;22.20;71.90;;;;;;5115641;28;20474;-69
2022/10/02 11:43:26;;;;;;;6.30;2.50;;;21.90;72.90;;;;;;5115603;27;20948;-69
2022/10/02 11:46:13;;;;;;;11.93;2.47;;;22.00;74.10;;;;;;5115705;27;20544;-68
2022/10/02 11:49:01;;;;;;;8.73;2.70;;;22.20;72.20;;;;;;5115841;28;20427;-70
2022/10/02 11:51:53;;;;;;;12.53;3.07;;;22.80;71.30;;;;;;5115764;28;20450;-69
2022/10/02 11:54:32;;;;;;;6.93;2.13;;;23.30;67.80;;;;;;5115631;28;20486;-69
2022/10/02 11:57:20;;;;;;;6.30;2.87;;;23.50;66.30;;;;;;5115635;28;20505;-68
2022/10/02 12:00:04;;;;;;;6.63;2.40;;;23.20;65.00;;;;;;5116216;28;20431;-69
2022/10/02 12:02:37;;;;;;;9.53;3.80;;;22.60;67.10;;;;;;5115984;28;20454;-67
2022/10/02 12:05:20;;;;;;;6.70;3.10;;;22.00;66.50;;;;;;5116829;28;20495;-67
2022/10/02 12:08:00;;;;;;;11.23;3.07;;;21.30;70.60;;;;;;5116923;28;20522;-67
2022/10/02 12:10:42;;;;;;;11.80;2.90;;;21.00;71.50;;;;;;5115478;28;20514;-68
2022/10/02 12:13:32;;;;;;;4.73;2.10;;;21.00;72.60;;;;;;5115446;28;20539;-69
2022/10/02 12:16:08;;;;;;;7.23;2.50;;;21.40;71.30;;;;;;5115374;28;20471;-69
2022/10/02 12:18:48;;;;;;;7.67;2.40;;;21.70;69.80;;;;;;5115295;28;20435;-69
2022/10/02 12:27:15;;;;;;;6.20;2.37;;;22.50;67.30;;;;;;5115658;28;20446;-70
2022/10/02 12:30:05;;;;;;;4.60;2.43;;;22.70;64.10;;;;;;5114987;28;20442;-70
2022/10/02 12:32:52;;;;;;;5.67;2.50;;;23.00;62.50;;;;;;5111147;28;20529;-70
2022/10/02 12:35:50;;;;;;;8.80;2.47;;;22.90;61.80;;;;;;5114506;28;21007;-70
2022/10/02 12:38:28;;;;;;;8.37;3.30;;;22.80;62.80;;;;;;5114314;28;20983;-69
2022/10/02 12:41:07;;;;;;;7.33;2.63;;;22.70;60.80;;;;;;5114830;28;20431;-70
2022/10/02 12:44:06;;;;;;;6.70;2.90;;;23.00;59.20;;;;;;5114802;28;20427;-71
2022/10/02 12:46:51;;;;;;;7.03;1.97;;;23.50;57.50;;;;;;5114538;28;20471;-71
2022/10/02 12:49:34;;;;;;;10.00;3.00;;;24.30;56.10;;;;;;5114417;28;20438;-72
2022/10/02 12:52:28;;;;;;;7.13;2.77;;;25.20;53.30;;;;;;5114612;28;20522;-72
2022/10/02 12:55:37;;;;;;;5.40;2.50;;;25.90;52.10;;;;;;5114515;28;20431;-70
2022/10/02 12:58:13;;;;;;;6.67;2.13;;;26.20;51.10;;;;;;5093578;28;20450;-67
2022/10/02 13:01:02;;;;;;;8.40;2.37;;;26.50;47.60;;;;;;5114480;28;20438;-71
2022/10/02 13:04:01;;;;;;;6.37;2.07;;;27.00;47.70;;;;;;5114562;28;20428;-72
2022/10/02 13:06:58;;;;;;;5.10;2.70;;;27.10;46.60;;;;;;5114148;27;20467;-68
2022/10/02 13:09:38;;;;;;;5.87;2.57;;;27.00;45.50;;;;;;5115127;22;20911;-71
2022/10/02 13:12:32;;;;;;;8.13;2.87;;;26.80;46.40;;;;;;5073912;28;20441;-70
2022/10/02 13:15:28;;;;;;;5.43;1.90;;;26.40;46.50;;;;;;5075628;28;20461;-70
2022/10/02 13:18:04;;;;;;;7.53;2.40;;;26.10;47.60;;;;;;5073586;28;20445;-70
2022/10/02 13:20:39;;;;;;;7.57;2.80;;;26.00;47.50;;;;;;5072984;28;21018;-70
2022/10/02 13:23:22;;;;;;;8.63;2.60;;;26.00;47.80;;;;;;5073646;28;20443;-70
2022/10/02 13:26:02;;;;;;;7.10;3.57;;;25.90;47.00;;;;;;5073079;28;20865;-70
2022/10/02 13:28:43;;;;;;;6.43;2.40;;;26.00;47.90;;;;;;5073523;28;20443;-70
2022/10/02 13:31:19;;;;;;;4.93;3.00;;;26.10;46.70;;;;;;5073439;28;20452;-70
2022/10/02 13:34:04;;;;;;;5.37;2.67;;;25.90;48.20;;;;;;5073330;28;20472;-70
2022/10/02 13:36:46;;;;;;;6.43;3.33;;;25.50;48.00;;;;;;5076187;28;20444;-70
2022/10/02 13:39:30;;;;;;;5.50;2.77;;;25.00;48.70;;;;;;5079864;28;20987;-70
2022/10/02 13:42:20;;;;;;;6.67;3.47;;;24.70;49.10;;;;;;5080360;28;20449;-70
2022/10/02 13:44:57;;;;;;;7.13;2.90;;;24.50;48.80;;;;;;5079226;28;20433;-70
2022/10/02 13:47:44;;;;;;;5.80;3.00;;;24.40;49.70;;;;;;5079202;28;20432;-70
2022/10/02 13:50:32;;;;;;;5.00;3.00;;;24.10;50.40;;;;;;5078600;28;20563;-70
2022/10/02 13:53:27;;;;;;;9.43;3.67;;;23.70;51.50;;;;;;5077584;28;20507;-70
2022/10/02 13:56:02;;;;;;;7.40;3.43;;;23.40;54.90;;;;;;5078113;28;20440;-70
2022/10/02 13:58:48;;;;;;;6.83;4.00;;;23.10;56.80;;;;;;5078096;28;20475;-70
2022/10/02 14:01:26;;;;;;;6.47;3.83;;;22.80;58.60;;;;;;5078142;28;20947;-70
2022/10/02 14:04:26;;;;;;;9.60;4.20;;;22.40;59.70;;;;;;5077838;28;20431;-71